TimeEDT,TemperatureF,Dew PointF,Humidity,Sea Level PressureIn,VisibilityMPH,Wind Direction,Wind SpeedMPH,Gust SpeedMPH,PrecipitationIn,Events,Conditions,WindDirDegrees,DateUTC
12:15 AM,37.4,33.8,87,29.82,10.0,SSW,5.8,-,N/A,,Clear,210,2013-10-24 04:15:00
12:35 AM,37.4,33.8,87,29.83,10.0,SW,4.6,-,N/A,,Clear,230,2013-10-24 04:35:00
12:55 AM,39.2,33.8,81,29.83,10.0,Calm,Calm,-,N/A,,Clear,0,2013-10-24 04:55:00
1:15 AM,39.2,33.8,81,29.84,10.0,Calm,Calm,-,N/A,,Clear,0,2013-10-24 05:15:00
1:35 AM,39.2,32.0,75,29.84,10.0,WSW,3.5,-,N/A,,Clear,250,2013-10-24 05:35:00
1:55 AM,37.4,32.0,81,29.85,10.0,South,5.8,-,N/A,,Clear,190,2013-10-24 05:55:00
2:15 AM,37.4,32.0,81,29.85,10.0,SSW,3.5,-,N/A,,Clear,200,2013-10-24 06:15:00
2:35 AM,37.4,32.0,81,29.86,10.0,South,4.6,-,N/A,,Clear,190,2013-10-24 06:35:00
2:55 AM,37.4,32.0,81,29.87,10.0,SSW,6.9,-,N/A,,Scattered Clouds,200,2013-10-24 06:55:00
3:15 AM,35.6,32.0,87,29.87,10.0,SW,5.8,-,N/A,,Scattered Clouds,230,2013-10-24 07:15:00
3:35 AM,37.4,32.0,81,29.87,10.0,WSW,5.8,-,N/A,,Scattered Clouds,240,2013-10-24 07:35:00
3:55 AM,35.6,32.0,87,29.88,10.0,WSW,5.8,-,N/A,,Scattered Clouds,240,2013-10-24 07:55:00
4:15 AM,35.6,32.0,87,29.89,10.0,SW,5.8,-,N/A,,Clear,230,2013-10-24 08:15:00
4:35 AM,37.4,32.0,81,29.89,10.0,SW,5.8,-,N/A,,Mostly Cloudy,230,2013-10-24 08:35:00
4:55 AM,37.4,32.0,81,29.90,10.0,SW,6.9,-,N/A,,Overcast,230,2013-10-24 08:55:00
5:15 AM,37.4,32.0,81,29.91,10.0,SW,6.9,-,N/A,,Scattered Clouds,230,2013-10-24 09:15:00
5:35 AM,37.4,32.0,81,29.91,10.0,WSW,5.8,-,N/A,,Clear,240,2013-10-24 09:35:00
5:55 AM,35.6,32.0,87,29.92,10.0,SW,6.9,-,N/A,,Clear,230,2013-10-24 09:55:00
6:15 AM,35.6,32.0,87,29.92,10.0,SW,6.9,-,N/A,,Clear,220,2013-10-24 10:15:00
6:35 AM,35.6,32.0,87,29.93,10.0,SW,8.1,-,N/A,,Clear,230,2013-10-24 10:35:00
6:55 AM,35.6,32.0,87,29.93,10.0,SW,8.1,-,N/A,,Clear,230,2013-10-24 10:55:00
7:15 AM,35.6,32.0,87,29.94,10.0,SW,5.8,-,N/A,,Clear,220,2013-10-24 11:15:00
7:35 AM,35.6,32.0,87,29.94,10.0,SW,5.8,-,N/A,,Clear,220,2013-10-24 11:35:00
7:55 AM,35.6,32.0,87,29.95,10.0,WSW,4.6,-,N/A,,Clear,240,2013-10-24 11:55:00
8:15 AM,37.4,32.0,81,29.95,10.0,SW,6.9,-,N/A,,Clear,230,2013-10-24 12:15:00
8:35 AM,37.4,32.0,81,29.96,10.0,SW,8.1,-,N/A,,Clear,230,2013-10-24 12:35:00
8:55 AM,41.0,32.0,70,29.95,10.0,WSW,3.5,-,N/A,,Clear,250,2013-10-24 12:55:00
9:15 AM,42.8,33.8,70,29.96,10.0,WSW,9.2,-,N/A,,Clear,240,2013-10-24 13:15:00
9:35 AM,42.8,32.0,66,29.96,10.0,West,9.2,17.3,N/A,,Clear,270,2013-10-24 13:35:00
9:55 AM,42.8,32.0,66,29.96,10.0,WSW,11.5,17.3,N/A,,Clear,240,2013-10-24 13:55:00
10:15 AM,44.6,32.0,61,29.96,10.0,West,9.2,-,N/A,,Clear,260,2013-10-24 14:15:00
10:35 AM,46.4,32.0,57,29.95,10.0,West,15.0,20.7,N/A,,Clear,270,2013-10-24 14:35:00
10:55 AM,46.4,32.0,57,29.95,10.0,West,9.2,18.4,N/A,,Clear,270,2013-10-24 14:55:00
11:15 AM,48.2,30.2,50,29.95,10.0,West,10.4,19.6,N/A,,Clear,260,2013-10-24 15:15:00
11:35 AM,46.4,28.4,50,29.96,10.0,West,12.7,21.9,N/A,,Scattered Clouds,270,2013-10-24 15:35:00
11:55 AM,48.2,28.4,46,29.96,10.0,West,11.5,19.6,N/A,,Scattered Clouds,270,2013-10-24 15:55:00
12:15 PM,50.0,28.4,43,29.95,10.0,West,8.1,-,N/A,,Scattered Clouds,260,2013-10-24 16:15:00
12:35 PM,48.2,26.6,43,29.95,10.0,WNW,10.4,17.3,N/A,,Scattered Clouds,290,2013-10-24 16:35:00
12:55 PM,50.0,26.6,40,29.94,10.0,West,8.1,-,N/A,,Scattered Clouds,270,2013-10-24 16:55:00
1:15 PM,51.8,26.6,38,29.93,10.0,West,6.9,18.4,N/A,,Mostly Cloudy,280,2013-10-24 17:15:00
1:35 PM,50.0,24.8,37,29.93,10.0,West,8.1,-,N/A,,Overcast,260,2013-10-24 17:35:00
1:55 PM,51.8,24.8,35,29.92,10.0,West,8.1,20.7,N/A,,Overcast,260,2013-10-24 17:55:00
2:15 PM,50.0,23.0,35,29.92,10.0,West,13.8,20.7,N/A,,Overcast,270,2013-10-24 18:15:00
2:35 PM,51.8,24.8,35,29.92,10.0,West,11.5,16.1,N/A,,Mostly Cloudy,270,2013-10-24 18:35:00
2:55 PM,50.0,23.0,35,29.93,10.0,WNW,10.4,19.6,N/A,,Overcast,290,2013-10-24 18:55:00
3:15 PM,50.0,24.8,37,29.93,10.0,West,15.0,-,N/A,,Overcast,270,2013-10-24 19:15:00
3:35 PM,50.0,26.6,40,29.94,10.0,WSW,12.7,19.6,N/A,,Mostly Cloudy,250,2013-10-24 19:35:00
3:55 PM,50.0,26.6,40,29.94,10.0,West,10.4,25.3,N/A,,Mostly Cloudy,270,2013-10-24 19:55:00
4:15 PM,50.0,26.6,40,29.95,10.0,West,11.5,17.3,N/A,,Mostly Cloudy,280,2013-10-24 20:15:00
4:35 PM,50.0,26.6,40,29.95,10.0,West,11.5,20.7,N/A,,Scattered Clouds,270,2013-10-24 20:35:00
4:55 PM,48.2,26.6,43,29.96,10.0,West,12.7,19.6,N/A,,Scattered Clouds,280,2013-10-24 20:55:00
5:15 PM,46.4,26.6,46,29.97,10.0,West,13.8,21.9,N/A,,Scattered Clouds,270,2013-10-24 21:15:00
5:35 PM,46.4,26.6,46,29.97,10.0,West,12.7,19.6,N/A,,Scattered Clouds,270,2013-10-24 21:35:00
5:55 PM,44.6,28.4,53,29.98,10.0,West,8.1,-,N/A,,Scattered Clouds,270,2013-10-24 21:55:00
6:15 PM,44.6,28.4,53,29.99,10.0,West,6.9,-,N/A,,Scattered Clouds,270,2013-10-24 22:15:00
6:35 PM,44.6,28.4,53,29.99,10.0,West,8.1,-,N/A,,Scattered Clouds,260,2013-10-24 22:35:00
6:55 PM,44.6,28.4,53,30.00,10.0,WSW,3.5,-,N/A,,Scattered Clouds,250,2013-10-24 22:55:00
7:15 PM,42.8,28.4,57,30.01,10.0,WSW,4.6,-,N/A,,Mostly Cloudy,250,2013-10-24 23:15:00
7:35 PM,42.8,28.4,57,30.01,10.0,WSW,4.6,-,N/A,,Scattered Clouds,250,2013-10-24 23:35:00
7:55 PM,41.0,28.4,61,30.02,10.0,WSW,4.6,-,N/A,,Clear,240,2013-10-24 23:55:00
8:15 PM,41.0,28.4,61,30.02,10.0,SW,6.9,-,N/A,,Clear,230,2013-10-25 00:15:00
8:35 PM,41.0,28.4,61,30.02,10.0,WSW,5.8,-,N/A,,Clear,240,2013-10-25 00:35:00
8:55 PM,42.8,28.4,57,30.02,10.0,WSW,4.6,-,N/A,,Clear,250,2013-10-25 00:55:00
9:15 PM,41.0,28.4,61,30.03,10.0,WSW,4.6,-,N/A,,Clear,240,2013-10-25 01:15:00
9:35 PM,37.4,28.4,70,30.04,10.0,SSW,6.9,-,N/A,,Clear,210,2013-10-25 01:35:00
9:55 PM,37.4,28.4,70,30.04,10.0,SW,6.9,-,N/A,,Clear,220,2013-10-25 01:55:00
10:15 PM,37.4,28.4,70,30.05,10.0,SW,6.9,-,N/A,,Clear,220,2013-10-25 02:15:00
10:35 PM,37.4,28.4,70,30.05,10.0,SSW,6.9,-,N/A,,Clear,210,2013-10-25 02:35:00
10:55 PM,37.4,28.4,70,30.05,10.0,SSW,5.8,-,N/A,,Clear,200,2013-10-25 02:55:00
11:15 PM,35.6,28.4,75,30.05,10.0,SW,6.9,-,N/A,,Clear,220,2013-10-25 03:15:00
11:35 PM,37.4,28.4,70,30.05,10.0,WSW,6.9,-,N/A,,Clear,240,2013-10-25 03:35:00
11:55 PM,37.4,28.4,70,30.06,10.0,WSW,3.5,-,N/A,,Clear,240,2013-10-25 03:55:00